sensor_id;sensor_type;location;lat;lon;timestamp;pressure;altitude;pressure_sealevel;temperature;humidity
10921;BME280;5513;50.580;8.818;2023-04-21T00:02:28;98845.06;;;8.79;100.00
10921;BME280;5513;50.580;8.818;2023-04-21T00:04:58;98847.63;;;8.80;100.00
10921;BME280;5513;50.580;8.818;2023-04-21T00:07:28;98833.91;;;9.02;100.00
10921;BME280;5513;50.580;8.818;2023-04-21T00:09:57;98834.88;;;9.01;100.00
10921;BME280;5513;50.580;8.818;2023-04-21T00:12:26;98838.16;;;9.05;100.00
10921;BME280;5513;50.580;8.818;2023-04-21T00:14:54;98832.88;;;9.05;100.00
10921;BME280;5513;50.580;8.818;2023-04-21T00:17:22;98829.28;;;9.06;100.00
10921;BME280;5513;50.580;8.818;2023-04-21T00:19:51;98825.94;;;9.16;100.00
10921;BME280;5513;50.580;8.818;2023-04-21T00:22:20;98830.38;;;9.16;100.00
10921;BME280;5513;50.580;8.818;2023-04-21T00:24:49;98835.75;;;9.29;100.00
10921;BME280;5513;50.580;8.818;2023-04-21T00:27:19;98837.09;;;9.22;100.00
10921;BME280;5513;50.580;8.818;2023-04-21T00:29:47;98836.22;;;8.80;100.00
10921;BME280;5513;50.580;8.818;2023-04-21T00:32:15;98836.38;;;8.77;100.00
10921;BME280;5513;50.580;8.818;2023-04-21T00:34:46;98841.50;;;8.80;100.00
10921;BME280;5513;50.580;8.818;2023-04-21T00:37:14;98841.09;;;8.57;100.00
10921;BME280;5513;50.580;8.818;2023-04-21T00:39:42;98848.66;;;8.49;100.00
10921;BME280;5513;50.580;8.818;2023-04-21T00:42:14;98847.88;;;8.76;100.00
10921;BME280;5513;50.580;8.818;2023-04-21T00:44:44;98848.84;;;8.75;100.00
10921;BME280;5513;50.580;8.818;2023-04-21T00:47:15;98850.06;;;8.83;100.00
10921;BME280;5513;50.580;8.818;2023-04-21T00:49:44;98856.56;;;8.92;100.00
10921;BME280;5513;50.580;8.818;2023-04-21T00:52:13;98858.72;;;9.14;100.00
10921;BME280;5513;50.580;8.818;2023-04-21T00:54:44;98848.97;;;9.14;100.00
10921;BME280;5513;50.580;8.818;2023-04-21T00:57:13;98852.84;;;9.23;100.00
10921;BME280;5513;50.580;8.818;2023-04-21T00:59:45;98841.81;;;9.16;100.00
10921;BME280;5513;50.580;8.818;2023-04-21T01:02:14;98850.50;;;9.18;100.00
10921;BME280;5513;50.580;8.818;2023-04-21T01:04:42;98845.75;;;9.24;100.00
10921;BME280;5513;50.580;8.818;2023-04-21T01:07:12;98847.59;;;9.09;100.00
10921;BME280;5513;50.580;8.818;2023-04-21T01:09:41;98841.47;;;9.08;100.00
10921;BME280;5513;50.580;8.818;2023-04-21T01:12:10;98841.72;;;9.18;100.00
10921;BME280;5513;50.580;8.818;2023-04-21T01:14:40;98838.31;;;9.16;100.00
10921;BME280;5513;50.580;8.818;2023-04-21T01:17:11;98841.47;;;9.08;100.00
10921;BME280;5513;50.580;8.818;2023-04-21T01:19:41;98849.66;;;9.04;100.00
10921;BME280;5513;50.580;8.818;2023-04-21T01:22:11;98844.59;;;8.72;100.00
10921;BME280;5513;50.580;8.818;2023-04-21T01:24:42;98856.75;;;8.75;100.00
10921;BME280;5513;50.580;8.818;2023-04-21T01:27:12;98856.56;;;8.78;100.00
10921;BME280;5513;50.580;8.818;2023-04-21T01:29:42;98850.53;;;8.62;100.00
10921;BME280;5513;50.580;8.818;2023-04-21T01:32:16;98855.06;;;8.74;100.00
10921;BME280;5513;50.580;8.818;2023-04-21T01:34:45;98859.94;;;8.66;100.00
10921;BME280;5513;50.580;8.818;2023-04-21T01:37:17;98862.78;;;8.77;100.00
10921;BME280;5513;50.580;8.818;2023-04-21T01:39:48;98862.50;;;8.96;100.00
10921;BME280;5513;50.580;8.818;2023-04-21T01:42:18;98862.69;;;8.93;100.00
10921;BME280;5513;50.580;8.818;2023-04-21T01:44:49;98865.13;;;8.96;100.00
10921;BME280;5513;50.580;8.818;2023-04-21T01:47:19;98875.03;;;9.06;100.00
10921;BME280;5513;50.580;8.818;2023-04-21T01:49:48;98871.06;;;9.13;100.00
10921;BME280;5513;50.580;8.818;2023-04-21T01:52:19;98868.63;;;9.10;100.00
10921;BME280;5513;50.580;8.818;2023-04-21T01:54:47;98858.81;;;9.12;100.00
10921;BME280;5513;50.580;8.818;2023-04-21T01:57:16;98852.78;;;9.10;100.00
10921;BME280;5513;50.580;8.818;2023-04-21T01:59:45;98850.78;;;9.14;100.00
10921;BME280;5513;50.580;8.818;2023-04-21T02:02:14;98854.09;;;9.17;100.00
10921;BME280;5513;50.580;8.818;2023-04-21T02:04:42;98853.25;;;9.17;100.00
10921;BME280;5513;50.580;8.818;2023-04-21T02:07:10;98850.97;;;9.11;100.00
10921;BME280;5513;50.580;8.818;2023-04-21T02:09:40;98850.97;;;9.11;100.00
10921;BME280;5513;50.580;8.818;2023-04-21T02:12:11;98855.13;;;9.15;100.00
10921;BME280;5513;50.580;8.818;2023-04-21T02:14:39;98857.75;;;9.15;100.00
10921;BME280;5513;50.580;8.818;2023-04-21T02:17:09;98856.63;;;9.19;100.00
10921;BME280;5513;50.580;8.818;2023-04-21T02:19:40;98855.78;;;9.18;100.00
10921;BME280;5513;50.580;8.818;2023-04-21T02:22:09;98854.47;;;9.11;100.00
10921;BME280;5513;50.580;8.818;2023-04-21T02:24:40;98855.69;;;9.20;100.00
10921;BME280;5513;50.580;8.818;2023-04-21T02:27:09;98851.63;;;9.29;100.00
10921;BME280;5513;50.580;8.818;2023-04-21T02:29:37;98843.44;;;9.05;100.00
10921;BME280;5513;50.580;8.818;2023-04-21T02:32:06;98850.41;;;9.06;100.00
10921;BME280;5513;50.580;8.818;2023-04-21T02:34:50;98847.09;;;9.16;100.00
10921;BME280;5513;50.580;8.818;2023-04-21T02:37:19;98849.47;;;9.21;100.00
10921;BME280;5513;50.580;8.818;2023-04-21T02:39:49;98847.75;;;9.20;100.00
10921;BME280;5513;50.580;8.818;2023-04-21T02:42:18;98850.50;;;9.18;100.00
10921;BME280;5513;50.580;8.818;2023-04-21T02:44:46;98847.88;;;9.18;100.00
10921;BME280;5513;50.580;8.818;2023-04-21T02:47:14;98850.31;;;9.22;100.00
10921;BME280;5513;50.580;8.818;2023-04-21T02:49:43;98848.03;;;9.15;100.00
10921;BME280;5513;50.580;8.818;2023-04-21T02:52:12;98850.59;;;9.17;100.00
10921;BME280;5513;50.580;8.818;2023-04-21T02:54:40;98849.47;;;9.21;100.00
10921;BME280;5513;50.580;8.818;2023-04-21T02:57:10;98851.22;;;9.35;100.00
10921;BME280;5513;50.580;8.818;2023-04-21T02:59:40;98863.31;;;9.25;100.00
10921;BME280;5513;50.580;8.818;2023-04-21T03:02:08;98859.44;;;9.30;100.00
10921;BME280;5513;50.580;8.818;2023-04-21T03:04:37;98855.00;;;9.31;100.00
10921;BME280;5513;50.580;8.818;2023-04-21T03:07:10;98855.28;;;9.26;100.00
10921;BME280;5513;50.580;8.818;2023-04-21T03:09:39;98860.66;;;9.39;100.00
10921;BME280;5513;50.580;8.818;2023-04-21T03:12:07;98854.06;;;9.32;100.00
10921;BME280;5513;50.580;8.818;2023-04-21T03:14:37;98849.56;;;9.20;100.00
10921;BME280;5513;50.580;8.818;2023-04-21T03:17:07;98855.47;;;9.23;100.00
10921;BME280;5513;50.580;8.818;2023-04-21T03:19:35;98844.81;;;9.25;100.00
10921;BME280;5513;50.580;8.818;2023-04-21T03:22:04;98857.47;;;9.05;100.00
10921;BME280;5513;50.580;8.818;2023-04-21T03:24:32;98857.66;;;9.16;100.00
10921;BME280;5513;50.580;8.818;2023-04-21T03:27:00;98860.28;;;9.31;100.00
10921;BME280;5513;50.580;8.818;2023-04-21T03:29:28;98855.66;;;9.34;100.00
10921;BME280;5513;50.580;8.818;2023-04-21T03:31:59;98846.81;;;9.07;100.00
10921;BME280;5513;50.580;8.818;2023-04-21T03:34:27;98847.75;;;9.06;100.00
10921;BME280;5513;50.580;8.818;2023-04-21T03:36:56;98850.31;;;9.22;100.00
10921;BME280;5513;50.580;8.818;2023-04-21T03:39:24;98851.63;;;9.29;100.00
10921;BME280;5513;50.580;8.818;2023-04-21T03:41:52;98844.38;;;9.18;100.00
10921;BME280;5513;50.580;8.818;2023-04-21T03:44:24;98852.63;;;9.26;100.00
10921;BME280;5513;50.580;8.818;2023-04-21T03:46:52;98848.31;;;9.25;100.00
10921;BME280;5513;50.580;8.818;2023-04-21T03:49:22;98845.47;;;9.28;100.00
10921;BME280;5513;50.580;8.818;2023-04-21T03:51:50;98844.34;;;9.32;100.00
10921;BME280;5513;50.580;8.818;2023-04-21T03:54:19;98853.94;;;9.33;100.00
10921;BME280;5513;50.580;8.818;2023-04-21T03:56:50;98847.63;;;9.36;100.00
10921;BME280;5513;50.580;8.818;2023-04-21T03:59:18;98849.81;;;9.29;100.00
10921;BME280;5513;50.580;8.818;2023-04-21T04:01:47;98848.97;;;9.29;100.00
10921;BME280;5513;50.580;8.818;2023-04-21T04:04:15;98850.47;;;9.33;100.00
10921;BME280;5513;50.580;8.818;2023-04-21T04:06:46;98853.94;;;9.33;100.00
10921;BME280;5513;50.580;8.818;2023-04-21T04:09:14;98853.69;;;9.38;100.00
10921;BME280;5513;50.580;8.818;2023-04-21T04:11:45;98847.97;;;9.44;100.00
10921;BME280;5513;50.580;8.818;2023-04-21T04:14:14;98846.09;;;9.46;100.00
10921;BME280;5513;50.580;8.818;2023-04-21T04:16:44;98849.66;;;9.45;100.00
10921;BME280;5513;50.580;8.818;2023-04-21T04:19:13;98836.44;;;9.45;100.00
10921;BME280;5513;50.580;8.818;2023-04-21T04:21:41;98846.19;;;9.44;100.00
10921;BME280;5513;50.580;8.818;2023-04-21T04:24:11;98846.75;;;9.50;100.00
10921;BME280;5513;50.580;8.818;2023-04-21T04:26:41;98851.19;;;9.49;100.00
10921;BME280;5513;50.580;8.818;2023-04-21T04:29:10;98847.88;;;9.45;100.00
10921;BME280;5513;50.580;8.818;2023-04-21T04:31:39;98851.19;;;9.49;100.00
10921;BME280;5513;50.580;8.818;2023-04-21T04:34:08;98843.00;;;9.39;100.00
10921;BME280;5513;50.580;8.818;2023-04-21T04:36:37;98845.63;;;9.39;100.00
10921;BME280;5513;50.580;8.818;2023-04-21T04:39:05;98844.00;;;9.51;100.00
10921;BME280;5513;50.580;8.818;2023-04-21T04:41:37;98843.16;;;9.51;100.00
10921;BME280;5513;50.580;8.818;2023-04-21T04:44:05;98841.75;;;9.45;100.00
10921;BME280;5513;50.580;8.818;2023-04-21T04:46:34;98840.41;;;9.52;100.00
10921;BME280;5513;50.580;8.818;2023-04-21T04:49:03;98843.16;;;9.51;100.00
10921;BME280;5513;50.580;8.818;2023-04-21T04:51:32;98845.59;;;9.54;100.00
10921;BME280;5513;50.580;8.818;2023-04-21T04:54:00;98848.44;;;9.51;100.00
10921;BME280;5513;50.580;8.818;2023-04-21T04:56:29;98845.69;;;9.52;100.00
10921;BME280;5513;50.580;8.818;2023-04-21T04:58:59;98849.19;;;9.53;100.00
10921;BME280;5513;50.580;8.818;2023-04-21T05:01:27;98842.66;;;9.58;100.00
10921;BME280;5513;50.580;8.818;2023-04-21T05:03:56;98854.47;;;9.53;100.00
10921;BME280;5513;50.580;8.818;2023-04-21T05:06:25;98851.03;;;9.65;100.00
10921;BME280;5513;50.580;8.818;2023-04-21T05:08:54;98848.63;;;9.74;100.00
10921;BME280;5513;50.580;8.818;2023-04-21T05:11:22;98850.09;;;9.66;100.00
10921;BME280;5513;50.580;8.818;2023-04-21T05:13:50;98847.47;;;9.66;100.00
10921;BME280;5513;50.580;8.818;2023-04-21T05:16:20;98850.53;;;9.72;100.00
10921;BME280;5513;50.580;8.818;2023-04-21T05:18:48;98848.72;;;9.73;100.00
10921;BME280;5513;50.580;8.818;2023-04-21T05:21:23;98847.88;;;9.72;100.00
10921;BME280;5513;50.580;8.818;2023-04-21T05:23:53;98843.25;;;9.76;100.00
10921;BME280;5513;50.580;8.818;2023-04-21T05:26:21;98850.13;;;9.79;100.00
10921;BME280;5513;50.580;8.818;2023-04-21T05:28:54;98849.19;;;9.80;100.00
10921;BME280;5513;50.580;8.818;2023-04-21T05:31:24;98845.69;;;9.79;100.00
10921;BME280;5513;50.580;8.818;2023-04-21T05:33:53;98844.84;;;9.79;100.00
10921;BME280;5513;50.580;8.818;2023-04-21T05:36:21;98854.81;;;9.88;100.00
10921;BME280;5513;50.580;8.818;2023-04-21T05:38:51;98844.34;;;9.86;100.00
10921;BME280;5513;50.580;8.818;2023-04-21T05:41:20;98844.34;;;9.86;100.00
10921;BME280;5513;50.580;8.818;2023-04-21T05:43:50;98844.38;;;9.72;100.00
10921;BME280;5513;50.580;8.818;2023-04-21T05:46:19;98848.69;;;9.87;100.00
10921;BME280;5513;50.580;8.818;2023-04-21T05:48:48;98847.53;;;9.91;100.00
10921;BME280;5513;50.580;8.818;2023-04-21T05:51:17;98841.72;;;9.99;100.00
10921;BME280;5513;50.580;8.818;2023-04-21T05:53:45;98841.72;;;9.99;100.00
10921;BME280;5513;50.580;8.818;2023-04-21T05:56:14;98840.56;;;10.03;100.00
10921;BME280;5513;50.580;8.818;2023-04-21T05:58:43;98838.69;;;10.05;100.00
10921;BME280;5513;50.580;8.818;2023-04-21T06:01:11;98850.00;;;10.07;100.00
10921;BME280;5513;50.580;8.818;2023-04-21T06:03:41;98855.41;;;10.18;100.00
10921;BME280;5513;50.580;8.818;2023-04-21T06:06:11;98849.56;;;10.00;100.00
10921;BME280;5513;50.580;8.818;2023-04-21T06:08:40;98849.50;;;10.15;100.00
10921;BME280;5513;50.580;8.818;2023-04-21T06:11:09;98840.19;;;10.22;100.00
10921;BME280;5513;50.580;8.818;2023-04-21T06:13:37;98832.19;;;10.36;100.00
10921;BME280;5513;50.580;8.818;2023-04-21T06:16:09;98827.50;;;10.40;100.00
10921;BME280;5513;50.580;8.818;2023-04-21T06:18:37;98834.72;;;10.50;100.00
10921;BME280;5513;50.580;8.818;2023-04-21T06:21:05;98827.72;;;10.49;100.00
10921;BME280;5513;50.580;8.818;2023-04-21T06:23:39;98832.00;;;10.52;100.00
10921;BME280;5513;50.580;8.818;2023-04-21T06:26:08;98839.38;;;10.47;100.00
10921;BME280;5513;50.580;8.818;2023-04-21T06:28:39;98827.00;;;10.47;100.00
10921;BME280;5513;50.580;8.818;2023-04-21T06:31:07;98830.91;;;10.29;100.00
10921;BME280;5513;50.580;8.818;2023-04-21T06:33:41;98834.84;;;10.36;100.00
10921;BME280;5513;50.580;8.818;2023-04-21T06:36:09;98840.88;;;10.38;100.00
10921;BME280;5513;50.580;8.818;2023-04-21T06:38:39;98834.41;;;10.55;100.00
10921;BME280;5513;50.580;8.818;2023-04-21T06:41:09;98843.31;;;10.54;100.00
10921;BME280;5513;50.580;8.818;2023-04-21T06:43:37;98841.91;;;10.61;100.00
10921;BME280;5513;50.580;8.818;2023-04-21T06:46:05;98840.78;;;10.65;100.00
10921;BME280;5513;50.580;8.818;2023-04-21T06:48:33;98838.03;;;10.54;100.00
10921;BME280;5513;50.580;8.818;2023-04-21T06:51:04;98839.94;;;10.65;100.00
10921;BME280;5513;50.580;8.818;2023-04-21T06:53:32;98830.03;;;10.79;100.00
10921;BME280;5513;50.580;8.818;2023-04-21T06:56:02;98829.34;;;10.65;100.00
10921;BME280;5513;50.580;8.818;2023-04-21T06:58:30;98822.34;;;10.64;100.00
10921;BME280;5513;50.580;8.818;2023-04-21T07:00:59;98821.69;;;10.73;100.00
10921;BME280;5513;50.580;8.818;2023-04-21T07:03:27;98817.97;;;10.75;100.00
10921;BME280;5513;50.580;8.818;2023-04-21T07:05:55;98816.81;;;10.92;100.00
10921;BME280;5513;50.580;8.818;2023-04-21T07:08:24;98818.88;;;11.00;100.00
10921;BME280;5513;50.580;8.818;2023-04-21T07:10:52;98816.56;;;10.95;100.00
10921;BME280;5513;50.580;8.818;2023-04-21T07:13:22;98814.97;;;11.05;100.00
10921;BME280;5513;50.580;8.818;2023-04-21T07:15:51;98819.34;;;10.94;100.00
10921;BME280;5513;50.580;8.818;2023-04-21T07:18:19;98811.81;;;10.87;100.00
10921;BME280;5513;50.580;8.818;2023-04-21T07:20:48;98807.16;;;10.91;100.00
10921;BME280;5513;50.580;8.818;2023-04-21T07:23:16;98812.84;;;11.10;100.00
10921;BME280;5513;50.580;8.818;2023-04-21T07:25:44;98811.13;;;11.09;100.00
10921;BME280;5513;50.580;8.818;2023-04-21T07:28:13;98820.75;;;11.23;100.00
10921;BME280;5513;50.580;8.818;2023-04-21T07:30:43;98822.78;;;11.20;100.00
10921;BME280;5513;50.580;8.818;2023-04-21T07:33:13;98825.63;;;11.29;100.00
10921;BME280;5513;50.580;8.818;2023-04-21T07:35:41;98821.06;;;11.18;100.00
10921;BME280;5513;50.580;8.818;2023-04-21T07:38:10;98822.97;;;11.29;100.00
10921;BME280;5513;50.580;8.818;2023-04-21T07:40:38;98821.06;;;11.31;100.00
10921;BME280;5513;50.580;8.818;2023-04-21T07:43:06;98817.19;;;11.35;100.00
10921;BME280;5513;50.580;8.818;2023-04-21T07:45:34;98804.97;;;11.45;100.00
10921;BME280;5513;50.580;8.818;2023-04-21T07:48:04;98801.75;;;11.53;100.00
10921;BME280;5513;50.580;8.818;2023-04-21T07:50:35;98809.88;;;11.63;100.00
10921;BME280;5513;50.580;8.818;2023-04-21T07:53:03;98803.78;;;11.73;100.00
10921;BME280;5513;50.580;8.818;2023-04-21T07:55:32;98797.59;;;11.62;100.00
10921;BME280;5513;50.580;8.818;2023-04-21T07:58:02;98801.66;;;11.79;100.00
10921;BME280;5513;50.580;8.818;2023-04-21T08:00:30;98797.13;;;11.92;100.00
10921;BME280;5513;50.580;8.818;2023-04-21T08:02:58;98807.19;;;11.99;100.00
10921;BME280;5513;50.580;8.818;2023-04-21T08:05:29;98802.94;;;11.97;100.00
10921;BME280;5513;50.580;8.818;2023-04-21T08:08:04;98805.81;;;11.94;100.00
10921;BME280;5513;50.580;8.818;2023-04-21T08:10:33;98808.16;;;12.10;100.00
10921;BME280;5513;50.580;8.818;2023-04-21T08:13:03;98803.72;;;11.86;100.00
10921;BME280;5513;50.580;8.818;2023-04-21T08:15:32;98810.13;;;12.19;100.00
10921;BME280;5513;50.580;8.818;2023-04-21T08:18:02;98805.44;;;12.33;100.00
10921;BME280;5513;50.580;8.818;2023-04-21T08:20:32;98802.47;;;12.60;100.00
10921;BME280;5513;50.580;8.818;2023-04-21T08:23:00;98793.91;;;12.79;100.00
10921;BME280;5513;50.580;8.818;2023-04-21T08:25:30;98787.72;;;12.90;100.00
10921;BME280;5513;50.580;8.818;2023-04-21T08:27:59;98793.03;;;13.24;100.00
10921;BME280;5513;50.580;8.818;2023-04-21T08:30:28;98797.06;;;13.50;100.00
10921;BME280;5513;50.580;8.818;2023-04-21T08:32:56;98794.41;;;13.50;100.00
10921;BME280;5513;50.580;8.818;2023-04-21T08:35:25;98786.72;;;13.68;100.00
10921;BME280;5513;50.580;8.818;2023-04-21T08:37:54;98784.25;;;13.55;100.00
10921;BME280;5513;50.580;8.818;2023-04-21T08:40:27;98790.91;;;13.61;100.00
10921;BME280;5513;50.580;8.818;2023-04-21T08:42:56;98782.16;;;13.59;100.00
10921;BME280;5513;50.580;8.818;2023-04-21T08:45:26;98775.47;;;13.43;100.00
10921;BME280;5513;50.580;8.818;2023-04-21T08:47:55;98771.66;;;13.57;100.00
10921;BME280;5513;50.580;8.818;2023-04-21T08:50:27;98779.91;;;13.54;100.00
10921;BME280;5513;50.580;8.818;2023-04-21T08:52:57;98774.97;;;13.38;100.00
10921;BME280;5513;50.580;8.818;2023-04-21T08:55:28;98766.72;;;13.53;100.00
10921;BME280;5513;50.580;8.818;2023-04-21T08:57:57;98773.22;;;13.60;100.00
10921;BME280;5513;50.580;8.818;2023-04-21T09:00:25;98768.38;;;13.65;100.00
10921;BME280;5513;50.580;8.818;2023-04-21T09:02:55;98764.53;;;13.79;100.00
10921;BME280;5513;50.580;8.818;2023-04-21T09:05:28;98766.84;;;13.83;100.00
10921;BME280;5513;50.580;8.818;2023-04-21T09:08:08;98761.03;;;13.99;100.00
10921;BME280;5513;50.580;8.818;2023-04-21T09:10:43;98764.44;;;13.80;100.00
10921;BME280;5513;50.580;8.818;2023-04-21T09:13:13;98763.63;;;13.68;100.00
10921;BME280;5513;50.580;8.818;2023-04-21T09:15:45;98764.38;;;14.12;100.00
10921;BME280;5513;50.580;8.818;2023-04-21T09:18:14;98760.41;;;14.27;100.00
10921;BME280;5513;50.580;8.818;2023-04-21T09:20:45;98767.31;;;14.51;100.00
10921;BME280;5513;50.580;8.818;2023-04-21T09:23:15;98768.53;;;14.47;100.00
10921;BME280;5513;50.580;8.818;2023-04-21T09:25:44;98767.63;;;14.16;100.00
10921;BME280;5513;50.580;8.818;2023-04-21T09:28:13;98768.66;;;14.24;100.00
10921;BME280;5513;50.580;8.818;2023-04-21T09:30:42;98771.72;;;14.20;100.00
10921;BME280;5513;50.580;8.818;2023-04-21T09:33:14;98765.63;;;14.50;100.00
10921;BME280;5513;50.580;8.818;2023-04-21T09:35:59;98756.06;;;14.06;100.00
10921;BME280;5513;50.580;8.818;2023-04-21T09:38:30;98763.38;;;14.34;100.00
10921;BME280;5513;50.580;8.818;2023-04-21T09:40:59;98755.16;;;14.58;100.00
10921;BME280;5513;50.580;8.818;2023-04-21T09:43:29;98752.06;;;14.63;100.00
10921;BME280;5513;50.580;8.818;2023-04-21T09:45:59;98746.25;;;14.48;100.00
10921;BME280;5513;50.580;8.818;2023-04-21T09:48:31;98753.75;;;14.64;100.00
10921;BME280;5513;50.580;8.818;2023-04-21T09:51:01;98742.41;;;14.71;100.00
10921;BME280;5513;50.580;8.818;2023-04-21T09:53:54;98740.41;;;14.64;100.00
10921;BME280;5513;50.580;8.818;2023-04-21T09:56:28;98745.63;;;14.65;100.00
10921;BME280;5513;50.580;8.818;2023-04-21T09:59:00;98751.94;;;14.64;100.00
10921;BME280;5513;50.580;8.818;2023-04-21T10:01:28;98748.75;;;14.70;100.00
10921;BME280;5513;50.580;8.818;2023-04-21T10:03:57;98751.84;;;14.24;100.00
10921;BME280;5513;50.580;8.818;2023-04-21T10:06:27;98748.91;;;14.27;100.00
10921;BME280;5513;50.580;8.818;2023-04-21T10:08:57;98747.94;;;14.49;100.00
10921;BME280;5513;50.580;8.818;2023-04-21T10:11:26;98747.28;;;14.15;100.00
10921;BME280;5513;50.580;8.818;2023-04-21T10:13:54;98752.25;;;14.19;100.00
10921;BME280;5513;50.580;8.818;2023-04-21T10:16:22;98740.84;;;14.38;100.00
10921;BME280;5513;50.580;8.818;2023-04-21T10:18:52;98750.25;;;14.42;100.00
10921;BME280;5513;50.580;8.818;2023-04-21T10:21:20;98747.94;;;14.49;100.00
10921;BME280;5513;50.580;8.818;2023-04-21T10:23:50;98744.66;;;14.76;100.00
10921;BME280;5513;50.580;8.818;2023-04-21T10:26:24;98743.97;;;14.74;100.00
10921;BME280;5513;50.580;8.818;2023-04-21T10:28:54;98740.50;;;14.83;100.00
10921;BME280;5513;50.580;8.818;2023-04-21T10:31:28;98733.94;;;14.87;100.00
10921;BME280;5513;50.580;8.818;2023-04-21T10:34:27;98739.59;;;15.13;100.00
10921;BME280;5513;50.580;8.818;2023-04-21T10:37:10;98732.25;;;15.05;100.00
10921;BME280;5513;50.580;8.818;2023-04-21T10:39:54;98724.88;;;14.38;100.00
10921;BME280;5513;50.580;8.818;2023-04-21T10:42:33;98723.09;;;14.79;100.00
10921;BME280;5513;50.580;8.818;2023-04-21T10:45:08;98721.94;;;15.51;100.00
10921;BME280;5513;50.580;8.818;2023-04-21T10:47:45;98716.34;;;16.02;100.00
10921;BME280;5513;50.580;8.818;2023-04-21T10:50:22;98710.84;;;15.55;100.00
10921;BME280;5513;50.580;8.818;2023-04-21T10:52:54;98703.84;;;15.44;100.00
10921;BME280;5513;50.580;8.818;2023-04-21T10:55:28;98704.56;;;14.77;100.00
10921;BME280;5513;50.580;8.818;2023-04-21T10:58:01;98694.53;;;15.10;100.00
10921;BME280;5513;50.580;8.818;2023-04-21T11:00:32;98706.03;;;15.10;100.00
10921;BME280;5513;50.580;8.818;2023-04-21T11:03:01;98702.28;;;15.71;100.00
10921;BME280;5513;50.580;8.818;2023-04-21T11:05:36;98695.09;;;15.13;100.00
10921;BME280;5513;50.580;8.818;2023-04-21T11:08:08;98691.72;;;15.21;100.00
10921;BME280;5513;50.580;8.818;2023-04-21T11:10:57;98693.28;;;15.53;100.00
10921;BME280;5513;50.580;8.818;2023-04-21T11:13:27;98698.50;;;15.35;100.00
10921;BME280;5513;50.580;8.818;2023-04-21T11:16:04;98692.84;;;15.96;100.00
10921;BME280;5513;50.580;8.818;2023-04-21T11:18:37;98688.22;;;15.88;100.00
10921;BME280;5513;50.580;8.818;2023-04-21T11:21:11;98693.28;;;15.53;100.00
10921;BME280;5513;50.580;8.818;2023-04-21T11:23:47;98678.47;;;16.16;100.00
10921;BME280;5513;50.580;8.818;2023-04-21T11:26:16;98683.66;;;16.18;100.00
10921;BME280;5513;50.580;8.818;2023-04-21T11:28:49;98680.09;;;15.70;100.00
10921;BME280;5513;50.580;8.818;2023-04-21T11:31:18;98674.72;;;16.37;100.00
10921;BME280;5513;50.580;8.818;2023-04-21T11:33:46;98674.56;;;15.91;100.00
10921;BME280;5513;50.580;8.818;2023-04-21T11:36:15;98663.13;;;16.18;100.00
10921;BME280;5513;50.580;8.818;2023-04-21T11:38:43;98665.28;;;16.79;100.00
10921;BME280;5513;50.580;8.818;2023-04-21T11:41:19;98666.84;;;17.00;100.00
10921;BME280;5513;50.580;8.818;2023-04-21T11:43:49;98658.44;;;17.30;100.00
10921;BME280;5513;50.580;8.818;2023-04-21T11:46:22;98654.09;;;17.47;100.00
10921;BME280;5513;50.580;8.818;2023-04-21T11:48:59;98656.69;;;17.57;100.00
10921;BME280;5513;50.580;8.818;2023-04-21T11:51:32;98658.81;;;17.71;100.00
10921;BME280;5513;50.580;8.818;2023-04-21T11:54:01;98656.72;;;17.65;100.00
10921;BME280;5513;50.580;8.818;2023-04-21T11:56:34;98658.50;;;17.74;100.00
10921;BME280;5513;50.580;8.818;2023-04-21T11:59:09;98659.22;;;16.77;100.00
10921;BME280;5513;50.580;8.818;2023-04-21T12:01:42;98661.69;;;16.61;100.00
10921;BME280;5513;50.580;8.818;2023-04-21T12:04:13;98644.09;;;16.58;100.00
10921;BME280;5513;50.580;8.818;2023-04-21T12:06:42;98647.66;;;16.49;100.00
10921;BME280;5513;50.580;8.818;2023-04-21T12:09:16;98651.50;;;16.37;100.00
10921;BME280;5513;50.580;8.818;2023-04-21T12:11:46;98652.81;;;16.70;100.00
10921;BME280;5513;50.580;8.818;2023-04-21T12:14:18;98656.81;;;16.47;100.00
10921;BME280;5513;50.580;8.818;2023-04-21T12:16:48;98655.63;;;16.59;100.00
10921;BME280;5513;50.580;8.818;2023-04-21T12:19:24;98657.22;;;16.15;100.00
10921;BME280;5513;50.580;8.818;2023-04-21T12:22:06;98656.47;;;15.85;100.00
10921;BME280;5513;50.580;8.818;2023-04-21T12:24:34;98651.16;;;15.46;100.00
10921;BME280;5513;50.580;8.818;2023-04-21T12:27:03;98651.59;;;16.18;100.00
10921;BME280;5513;50.580;8.818;2023-04-21T12:29:34;98647.56;;;16.41;100.00
10921;BME280;5513;50.580;8.818;2023-04-21T12:32:03;98632.31;;;16.51;100.00
10921;BME280;5513;50.580;8.818;2023-04-21T12:34:32;98637.47;;;16.35;100.00
10921;BME280;5513;50.580;8.818;2023-04-21T12:37:01;98641.03;;;15.69;100.00
10921;BME280;5513;50.580;8.818;2023-04-21T12:39:30;98635.66;;;15.60;100.00
10921;BME280;5513;50.580;8.818;2023-04-21T12:41:58;98634.00;;;15.78;100.00
10921;BME280;5513;50.580;8.818;2023-04-21T12:44:27;98630.22;;;16.18;100.00
10921;BME280;5513;50.580;8.818;2023-04-21T12:46:57;98626.59;;;16.09;100.00
10921;BME280;5513;50.580;8.818;2023-04-21T12:49:25;98625.25;;;16.33;100.00
10921;BME280;5513;50.580;8.818;2023-04-21T12:51:54;98618.16;;;16.41;100.00
10921;BME280;5513;50.580;8.818;2023-04-21T12:54:23;98621.28;;;16.92;100.00
10921;BME280;5513;50.580;8.818;2023-04-21T12:56:51;98618.22;;;17.04;100.00
10921;BME280;5513;50.580;8.818;2023-04-21T12:59:19;98606.75;;;16.67;100.00
10921;BME280;5513;50.580;8.818;2023-04-21T13:01:48;98606.66;;;16.58;100.00
10921;BME280;5513;50.580;8.818;2023-04-21T13:04:20;98603.38;;;16.92;100.00
10921;BME280;5513;50.580;8.818;2023-04-21T13:06:48;98607.97;;;16.82;100.00
10921;BME280;5513;50.580;8.818;2023-04-21T13:09:17;98609.19;;;17.41;100.00
10921;BME280;5513;50.580;8.818;2023-04-21T13:11:45;98606.38;;;17.68;100.00
10921;BME280;5513;50.580;8.818;2023-04-21T13:14:15;98593.13;;;18.61;100.00
10921;BME280;5513;50.580;8.818;2023-04-21T13:16:43;98586.00;;;18.78;100.00
10921;BME280;5513;50.580;8.818;2023-04-21T13:19:12;98586.03;;;18.94;100.00
10921;BME280;5513;50.580;8.818;2023-04-21T13:21:42;98585.41;;;19.33;100.00